Cherokee, Iowa
Current Conditions -  °F | °C
As of 4:55 AM on Wednesday 22 Oct 2014 (Local Time) from KCKP Reporting Station
Overcast Overcast  
Wind Chill: 50°   Ceiling: 4300
Heat Index: 50°   Visibility: 10mi
Dew Point: 44°   Wind: 12mph
Humidity: 78%   Direction: 170°S
Pressure: 30.1"   Gusts: 21mph
Location:  42.75°N, 95.55°W
Report Text: KCKP 220955Z AUTO 17010G18KT 10SM BKN043 OVC060 10/06 A3010 RMK AO2 T01010064
Loading
Personal Weather Stations






























Interactive Weather Map
Tropical Storm Tracking
New forecast layout! Learn more

10-Day Weather Forecast

Advertisements
Track Severe Weather on mobile